EST,Max TemperatureF,Mean TemperatureF,Min TemperatureF,Max Dew PointF,MeanDew PointF,Min DewpointF,Max Humidity, Mean Humidity, Min Humidity, Max Sea Level PressureIn, Mean Sea Level PressureIn, Min Sea Level PressureIn, Max VisibilityMiles, Mean VisibilityMiles, Min VisibilityMiles, Max Wind SpeedMPH, Mean Wind SpeedMPH, Max Gust SpeedMPH,PrecipitationIn, CloudCover, Events, WindDirDegrees
2013-1-1,33,18,3,27,12,-2,79,63,47,29.99,29.82,29.65,10,7,1,26,11,33,0.03,6,Snow,310
2013-1-2,16,5,-6,10,2,-11,88,73,57,30.30,30.03,29.86,10,5,1,20,8,26,0.05,6,Snow,12
2013-1-3,16,3,-10,7,-7,-15,87,74,60,30.30,30.15,29.92,10,10,8,12,3,15,0.00,5,,166
2013-1-4,36,26,15,23,18,8,81,69,56,29.90,29.81,29.74,10,10,8,20,12,28,T,8,Snow,218
2013-1-5,35,23,10,25,14,6,84,67,50,30.26,30.11,29.78,10,8,1,29,8,37,T,5,Snow,333
2013-1-6,34,24,14,27,20,10,88,79,69,30.16,29.97,29.88,10,6,1,16,8,21,0.02,7,Snow,210
2013-1-7,25,17,10,16,11,6,86,74,53,30.41,30.25,30.00,10,7,1,21,8,26,0.01,5,Snow,357
2013-1-8,36,27,18,21,19,15,84,70,56,30.38,30.27,30.19,10,10,7,22,10,31,0.00,0,,195
2013-1-9,43,28,12,29,21,11,92,72,52,30.37,30.12,29.90,10,9,6,28,11,38,0.00,5,,208
2013-1-10,40,33,25,32,25,21,89,72,54,30.58,30.39,30.04,10,10,3,24,9,35,0.01,5,Rain-Snow,310
2013-1-11,38,29,19,34,24,17,92,72,52,30.54,30.28,30.07,10,10,7,20,8,29,0.05,6,Rain,172
2013-1-12,45,42,38,39,38,34,89,84,79,30.11,30.06,30.02,10,10,7,21,10,29,T,6,Rain,183
2013-1-13,48,43,37,45,41,36,96,86,76,30.09,29.95,29.85,10,9,2,28,12,37,T,7,Rain,180
2013-1-14,49,42,35,45,34,19,86,66,45,30.30,30.02,29.76,10,10,6,29,12,36,T,6,Rain,259
2013-1-15,36,31,26,23,18,15,75,61,47,30.36,30.30,30.26,10,10,10,13,4,15,0.00,5,,5
2013-1-16,31,29,27,27,25,19,85,74,63,30.23,29.93,29.77,10,6,1,16,6,21,0.05,7,Snow,174
2013-1-17,32,19,6,27,10,-7,85,66,46,30.22,30.01,29.78,10,9,1,22,10,29,T,5,Snow,14
2013-1-18,20,10,-1,7,-5,-11,79,57,34,30.39,30.31,30.21,10,10,10,18,6,24,0.00,1,,171
2013-1-19,41,31,20,23,17,10,84,65,45,30.19,29.98,29.70,10,7,1,25,16,36,0.01,8,Snow,185
2013-1-20,43,30,16,32,19,4,56,49,41,29.99,29.64,29.38,10,9,0,31,16,41,0.02,6,Snow,242
2013-1-21,18,12,6,7,2,-2,83,66,49,30.08,29.97,29.84,10,8,1,13,6,16,0.01,6,Snow,2
2013-1-22,12,7,1,5,0,-14,88,64,39,30.12,29.92,29.81,10,6,0,23,7,29,0.02,7,Snow,338
2013-1-23,1,-4,-9,-11,-16,-19,65,56,47,30.25,30.19,30.12,10,10,9,16,8,21,T,3,,356
2013-1-24,11,0,-12,-9,-13,-18,78,58,38,30.39,30.26,30.18,10,10,10,24,9,30,0.00,4,,341
2013-1-25,13,5,-3,4,-6,-11,73,58,42,30.42,30.30,30.11,10,9,2,14,4,17,0.02,5,Snow,15
2013-1-26,15,9,2,4,-1,-5,80,63,46,30.34,30.22,30.13,10,10,6,15,7,18,T,4,Snow,358
2013-1-27,19,12,4,3,-3,-7,76,55,34,30.54,30.47,30.31,10,10,10,17,5,21,0.00,1,,10
2013-1-28,23,13,3,19,13,-3,92,69,45,30.50,30.13,29.98,10,4,0,13,5,15,0.30,7,Fog-Snow,122
2013-1-29,38,31,23,34,23,17,89,79,68,30.18,30.06,29.94,10,9,7,18,6,25,T,8,Rain-Snow,133
2013-1-30,57,48,38,54,43,34,93,88,82,29.92,29.57,29.24,10,9,6,29,19,41,0.23,8,Rain,179
2013-1-31,56,40,24,54,35,5,96,67,38,29.54,29.12,28.83,10,9,1,29,16,48,0.28,7,Rain-Snow,227